Anzahl Datensätze: 282
min. Temperatur: -0.6 °C
max. Temperatur: 7.9 °C
max. Windgeschwindigkeit: 3.6 km/h
Niederschlagsumme: 0.0 mm
| Datum |
Zeit |
Temp °C |
Feuchte % |
Taupunkt °C |
Luftdruck hPa |
Wind km/h |
Windrichtung |
Strahlung w/m² |
Niederschlag mm |
|---|---|---|---|---|---|---|---|---|---|
| 17.12.2025 | 00:02 | 2.9 | 88 | 1.1 | 1016.4 | 0.0 | SSO | 0 | 0.0 |
| 17.12.2025 | 00:07 | 2.8 | 89 | 1.2 | 1016.6 | 0.0 | SSO | 0 | 0.0 |
| 17.12.2025 | 00:12 | 2.7 | 89 | 1.1 | 1016.5 | 0.0 | SSO | 0 | 0.0 |
| 17.12.2025 | 00:17 | 2.5 | 89 | 0.9 | 1016.5 | 0.0 | SSO | 0 | 0.0 |
| 17.12.2025 | 00:22 | 2.5 | 89 | 0.9 | 1016.5 | 0.0 | SSO | 0 | 0.0 |
| 17.12.2025 | 00:27 | 2.5 | 89 | 0.9 | 1016.4 | 0.0 | SSO | 0 | 0.0 |
| 17.12.2025 | 00:32 | 2.4 | 89 | 0.8 | 1016.5 | 0.0 | SSO | 0 | 0.0 |
| 17.12.2025 | 00:37 | 2.4 | 89 | 0.8 | 1016.6 | 0.0 | SSO | 0 | 0.0 |
| 17.12.2025 | 00:42 | 2.3 | 89 | 0.7 | 1016.6 | 0.0 | SSO | 0 | 0.0 |
| 17.12.2025 | 00:47 | 2.2 | 90 | 0.7 | 1016.6 | 0.0 | SSO | 0 | 0.0 |
| 17.12.2025 | 00:52 | 2.1 | 90 | 0.6 | 1016.7 | 0.0 | SSO | 0 | 0.0 |
| 17.12.2025 | 00:57 | 2.0 | 90 | 0.5 | 1016.6 | 0.0 | SSO | 0 | 0.0 |
| 17.12.2025 | 01:02 | 2.0 | 90 | 0.5 | 1016.7 | 0.0 | SSO | 0 | 0.0 |
| 17.12.2025 | 01:07 | 1.9 | 90 | 0.4 | 1016.7 | 0.0 | SSO | 0 | 0.0 |
| 17.12.2025 | 01:12 | 1.8 | 90 | 0.3 | 1016.7 | 0.0 | SSO | 0 | 0.0 |
| 17.12.2025 | 01:17 | 1.6 | 90 | 0.1 | 1016.7 | 0.0 | SSO | 0 | 0.0 |
| 17.12.2025 | 01:22 | 1.5 | 90 | 0.0 | 1016.7 | 0.0 | S | 0 | 0.0 |
| 17.12.2025 | 01:27 | 1.5 | 90 | 0.0 | 1016.7 | 0.0 | S | 0 | 0.0 |
| 17.12.2025 | 01:32 | 1.5 | 90 | 0.0 | 1016.8 | 0.0 | S | 0 | 0.0 |
| 17.12.2025 | 01:37 | 1.4 | 90 | -0.1 | 1016.7 | 0.0 | S | 0 | 0.0 |
| 17.12.2025 | 01:42 | 1.3 | 90 | -0.2 | 1016.8 | 0.0 | S | 0 | 0.0 |
| 17.12.2025 | 01:47 | 1.3 | 90 | -0.2 | 1016.7 | 0.0 | S | 0 | 0.0 |
| 17.12.2025 | 01:52 | 1.2 | 90 | -0.3 | 1016.8 | 0.0 | S | 0 | 0.0 |
| 17.12.2025 | 01:57 | 1.1 | 90 | -0.4 | 1016.8 | 0.0 | S | 0 | 0.0 |
| 17.12.2025 | 02:02 | 1.1 | 91 | -0.2 | 1016.9 | 0.0 | S | 0 | 0.0 |
| 17.12.2025 | 02:07 | 1.0 | 91 | -0.3 | 1016.9 | 0.0 | S | 0 | 0.0 |
| 17.12.2025 | 02:12 | 1.0 | 91 | -0.3 | 1016.8 | 0.0 | S | 0 | 0.0 |
| 17.12.2025 | 02:17 | 0.9 | 91 | -0.4 | 1016.9 | 0.0 | S | 0 | 0.0 |
| 17.12.2025 | 02:22 | 0.9 | 91 | -0.4 | 1016.9 | 0.0 | SW | 0 | 0.0 |
| 17.12.2025 | 02:27 | 0.9 | 91 | -0.4 | 1016.9 | 0.0 | SW | 0 | 0.0 |
| 17.12.2025 | 02:32 | 0.8 | 91 | -0.5 | 1016.9 | 0.0 | SW | 0 | 0.0 |
| 17.12.2025 | 02:38 | 0.8 | 91 | -0.5 | 1017.0 | 0.0 | SW | 0 | 0.0 |
| 17.12.2025 | 02:43 | 0.7 | 91 | -0.6 | 1017.0 | 0.0 | SW | 0 | 0.0 |
| 17.12.2025 | 02:48 | 0.6 | 91 | -0.7 | 1017.0 | 0.0 | SW | 0 | 0.0 |
| 17.12.2025 | 02:53 | 0.5 | 91 | -0.8 | 1016.9 | 0.0 | SW | 0 | 0.0 |
| 17.12.2025 | 02:58 | 0.5 | 91 | -0.8 | 1016.9 | 0.0 | SW | 0 | 0.0 |
| 17.12.2025 | 03:03 | 0.6 | 91 | -0.7 | 1017.0 | 0.0 | SW | 0 | 0.0 |
| 17.12.2025 | 03:08 | 0.8 | 91 | -0.5 | 1017.0 | 0.0 | SW | 0 | 0.0 |
| 17.12.2025 | 03:13 | 0.9 | 91 | -0.4 | 1017.0 | 0.0 | SW | 0 | 0.0 |
| 17.12.2025 | 03:18 | 0.9 | 91 | -0.4 | 1017.0 | 0.0 | SW | 0 | 0.0 |
| 17.12.2025 | 03:23 | 0.8 | 91 | -0.5 | 1017.1 | 0.0 | SW | 0 | 0.0 |
| 17.12.2025 | 03:28 | 0.7 | 91 | -0.6 | 1017.0 | 0.0 | SW | 0 | 0.0 |
| 17.12.2025 | 03:33 | 0.6 | 91 | -0.7 | 1017.0 | 0.0 | SW | 0 | 0.0 |
| 17.12.2025 | 03:38 | 0.6 | 91 | -0.7 | 1017.0 | 0.0 | SW | 0 | 0.0 |
| 17.12.2025 | 03:43 | 0.5 | 91 | -0.8 | 1017.0 | 0.0 | SW | 0 | 0.0 |
| 17.12.2025 | 03:48 | 0.4 | 91 | -0.9 | 1017.0 | 0.0 | SW | 0 | 0.0 |
| 17.12.2025 | 03:53 | 0.4 | 91 | -0.9 | 1016.9 | 0.0 | SW | 0 | 0.0 |
| 17.12.2025 | 03:58 | 0.3 | 91 | -1.0 | 1017.0 | 0.0 | SW | 0 | 0.0 |
| 17.12.2025 | 04:03 | 0.3 | 91 | -1.0 | 1017.0 | 0.0 | SW | 0 | 0.0 |
| 17.12.2025 | 04:08 | 0.3 | 91 | -1.0 | 1017.0 | 0.0 | SW | 0 | 0.0 |
| 17.12.2025 | 04:13 | 0.2 | 91 | -1.1 | 1017.1 | 0.0 | SW | 0 | 0.0 |
| 17.12.2025 | 04:18 | 0.1 | 91 | -1.2 | 1017.2 | 0.0 | SW | 0 | 0.0 |
| 17.12.2025 | 04:23 | 0.0 | 91 | -1.3 | 1017.2 | 0.0 | SW | 0 | 0.0 |
| 17.12.2025 | 04:28 | -0.1 | 91 | -1.4 | 1017.3 | 0.0 | SW | 0 | 0.0 |
| 17.12.2025 | 04:33 | -0.1 | 91 | -1.4 | 1017.3 | 0.0 | SW | 0 | 0.0 |
| 17.12.2025 | 04:38 | -0.1 | 91 | -1.4 | 1017.3 | 0.0 | SW | 0 | 0.0 |
| 17.12.2025 | 04:43 | -0.1 | 91 | -1.4 | 1017.4 | 0.0 | SW | 0 | 0.0 |
| 17.12.2025 | 04:48 | -0.1 | 91 | -1.4 | 1017.4 | 0.0 | SW | 0 | 0.0 |
| 17.12.2025 | 04:53 | -0.2 | 91 | -1.5 | 1017.4 | 0.0 | SW | 0 | 0.0 |
| 17.12.2025 | 04:58 | -0.3 | 91 | -1.6 | 1017.5 | 0.0 | SW | 0 | 0.0 |
| 17.12.2025 | 05:03 | -0.4 | 91 | -1.7 | 1017.4 | 0.0 | SW | 0 | 0.0 |
| 17.12.2025 | 05:08 | -0.4 | 91 | -1.7 | 1017.4 | 0.0 | SW | 0 | 0.0 |
| 17.12.2025 | 05:13 | -0.5 | 91 | -1.8 | 1017.5 | 0.0 | SW | 0 | 0.0 |
| 17.12.2025 | 05:18 | -0.5 | 91 | -1.8 | 1017.6 | 0.0 | SW | 0 | 0.0 |
| 17.12.2025 | 05:23 | -0.6 | 91 | -1.9 | 1017.7 | 0.0 | SW | 0 | 0.0 |
| 17.12.2025 | 05:28 | -0.6 | 91 | -1.9 | 1017.8 | 0.0 | SW | 0 | 0.0 |
| 17.12.2025 | 05:34 | -0.6 | 91 | -1.9 | 1017.7 | 0.0 | SW | 0 | 0.0 |
| 17.12.2025 | 05:39 | -0.6 | 91 | -1.9 | 1017.9 | 0.0 | SW | 0 | 0.0 |
| 17.12.2025 | 05:44 | -0.6 | 91 | -1.9 | 1017.9 | 0.0 | SW | 0 | 0.0 |
| 17.12.2025 | 05:54 | -0.4 | 91 | -1.7 | 1018.1 | 0.0 | SW | 0 | 0.0 |
| 17.12.2025 | 05:59 | -0.4 | 91 | -1.7 | 1018.0 | 0.0 | SW | 0 | 0.0 |
| 17.12.2025 | 06:04 | -0.3 | 91 | -1.6 | 1018.2 | 0.0 | SW | 0 | 0.0 |
| 17.12.2025 | 06:09 | -0.3 | 91 | -1.6 | 1018.3 | 0.0 | NW | 0 | 0.0 |
| 17.12.2025 | 06:19 | -0.1 | 91 | -1.4 | 1018.3 | 0.0 | N | 0 | 0.0 |
| 17.12.2025 | 06:24 | 0.0 | 92 | -1.1 | 1018.2 | 0.0 | N | 0 | 0.0 |
| 17.12.2025 | 06:29 | 0.0 | 92 | -1.1 | 1018.3 | 0.0 | N | 0 | 0.0 |
| 17.12.2025 | 06:34 | 0.1 | 91 | -1.2 | 1018.3 | 0.0 | N | 0 | 0.0 |
| 17.12.2025 | 06:44 | 0.3 | 92 | -0.8 | 1018.5 | 0.0 | N | 0 | 0.0 |
| 17.12.2025 | 06:49 | 0.4 | 92 | -0.7 | 1018.6 | 0.0 | N | 0 | 0.0 |
| 17.12.2025 | 06:54 | 0.5 | 92 | -0.6 | 1018.6 | 0.0 | N | 0 | 0.0 |
| 17.12.2025 | 06:59 | 0.5 | 92 | -0.6 | 1018.6 | 0.0 | N | 0 | 0.0 |
| 17.12.2025 | 07:04 | 0.6 | 92 | -0.5 | 1018.6 | 0.0 | N | 0 | 0.0 |
| 17.12.2025 | 07:09 | 0.7 | 92 | -0.5 | 1018.6 | 0.0 | N | 0 | 0.0 |
| 17.12.2025 | 07:14 | 0.8 | 92 | -0.4 | 1018.6 | 0.0 | N | 0 | 0.0 |
| 17.12.2025 | 07:19 | 0.9 | 92 | -0.3 | 1018.7 | 0.0 | N | 0 | 0.0 |
| 17.12.2025 | 07:24 | 0.9 | 92 | -0.3 | 1018.8 | 0.0 | WNW | 0 | 0.0 |
| 17.12.2025 | 07:29 | 1.0 | 92 | -0.2 | 1018.9 | 0.0 | W | 0 | 0.0 |
| 17.12.2025 | 07:34 | 1.0 | 92 | -0.2 | 1018.9 | 0.0 | W | 0 | 0.0 |
| 17.12.2025 | 07:39 | 1.0 | 92 | -0.2 | 1019.0 | 0.0 | W | 0 | 0.0 |
| 17.12.2025 | 07:44 | 1.0 | 92 | -0.2 | 1019.1 | 0.0 | W | 0 | 0.0 |
| 17.12.2025 | 07:49 | 1.1 | 92 | -0.1 | 1019.1 | 0.0 | W | 0 | 0.0 |
| 17.12.2025 | 07:54 | 1.1 | 92 | -0.1 | 1019.2 | 0.0 | W | 0 | 0.0 |
| 17.12.2025 | 07:59 | 1.3 | 92 | 0.1 | 1019.3 | 0.0 | W | 0 | 0.0 |
| 17.12.2025 | 08:04 | 1.4 | 92 | 0.2 | 1019.4 | 0.0 | W | 0 | 0.0 |
| 17.12.2025 | 08:10 | 1.4 | 92 | 0.2 | 1019.5 | 0.0 | W | 0 | 0.0 |
| 17.12.2025 | 08:15 | 1.5 | 92 | 0.3 | 1019.6 | 0.0 | W | 0 | 0.0 |
| 17.12.2025 | 08:20 | 1.5 | 92 | 0.3 | 1019.6 | 0.0 | W | 0 | 0.0 |
| 17.12.2025 | 08:25 | 1.6 | 92 | 0.4 | 1019.6 | 0.0 | W | 0 | 0.0 |
| 17.12.2025 | 08:30 | 1.7 | 92 | 0.5 | 1019.7 | 0.0 | W | 0 | 0.0 |
| 17.12.2025 | 08:35 | 1.8 | 92 | 0.6 | 1019.7 | 0.0 | W | 0 | 0.0 |
| 17.12.2025 | 08:40 | 1.9 | 92 | 0.7 | 1019.8 | 0.0 | W | 0 | 0.0 |
| 17.12.2025 | 08:45 | 1.9 | 92 | 0.7 | 1019.9 | 0.0 | W | 0 | 0.0 |
| 17.12.2025 | 08:50 | 2.0 | 92 | 0.8 | 1020.0 | 0.0 | W | 5 | 0.0 |
| 17.12.2025 | 08:55 | 2.0 | 92 | 0.8 | 1020.0 | 0.0 | W | 5 | 0.0 |
| 17.12.2025 | 09:00 | 2.1 | 92 | 0.9 | 1020.1 | 0.0 | W | 7 | 0.0 |
| 17.12.2025 | 09:05 | 2.1 | 92 | 0.9 | 1020.2 | 0.0 | W | 9 | 0.0 |
| 17.12.2025 | 09:10 | 2.3 | 92 | 1.1 | 1020.2 | 0.0 | W | 11 | 0.0 |
| 17.12.2025 | 09:15 | 2.3 | 92 | 1.1 | 1020.3 | 0.0 | W | 16 | 0.0 |
| 17.12.2025 | 09:20 | 2.4 | 92 | 1.2 | 1020.3 | 0.0 | W | 25 | 0.0 |
| 17.12.2025 | 09:25 | 2.5 | 92 | 1.3 | 1020.3 | 0.0 | W | 26 | 0.0 |
| 17.12.2025 | 09:30 | 2.5 | 92 | 1.3 | 1020.4 | 0.0 | W | 26 | 0.0 |
| 17.12.2025 | 09:35 | 2.6 | 92 | 1.4 | 1020.4 | 0.0 | W | 28 | 0.0 |
| 17.12.2025 | 09:40 | 2.7 | 92 | 1.5 | 1020.6 | 0.0 | W | 28 | 0.0 |
| 17.12.2025 | 09:45 | 2.8 | 92 | 1.6 | 1020.5 | 0.0 | W | 33 | 0.0 |
| 17.12.2025 | 09:50 | 2.9 | 92 | 1.7 | 1020.5 | 0.0 | W | 40 | 0.0 |
| 17.12.2025 | 09:55 | 2.9 | 92 | 1.7 | 1020.5 | 0.0 | W | 58 | 0.0 |
| 17.12.2025 | 10:00 | 3.0 | 92 | 1.8 | 1020.5 | 0.0 | W | 60 | 0.0 |
| 17.12.2025 | 10:05 | 3.1 | 92 | 1.9 | 1020.6 | 0.0 | W | 54 | 0.0 |
| 17.12.2025 | 10:10 | 3.3 | 92 | 2.1 | 1020.6 | 0.0 | W | 53 | 0.0 |
| 17.12.2025 | 10:15 | 3.4 | 92 | 2.2 | 1020.6 | 0.0 | W | 56 | 0.0 |
| 17.12.2025 | 10:20 | 3.4 | 92 | 2.2 | 1020.6 | 0.0 | SSW | 60 | 0.0 |
| 17.12.2025 | 10:25 | 3.5 | 92 | 2.3 | 1020.7 | 0.0 | SSW | 56 | 0.0 |
| 17.12.2025 | 10:30 | 3.6 | 92 | 2.4 | 1020.7 | 0.0 | SSW | 54 | 0.0 |
| 17.12.2025 | 10:35 | 3.6 | 92 | 2.4 | 1020.8 | 0.0 | SSW | 56 | 0.0 |
| 17.12.2025 | 10:40 | 3.8 | 92 | 2.6 | 1020.8 | 0.0 | SSO | 60 | 0.0 |
| 17.12.2025 | 10:45 | 3.9 | 92 | 2.7 | 1020.8 | 0.0 | SSO | 62 | 0.0 |
| 17.12.2025 | 10:50 | 3.9 | 92 | 2.7 | 1020.8 | 0.0 | SSO | 65 | 0.0 |
| 17.12.2025 | 10:55 | 4.0 | 92 | 2.8 | 1020.9 | 0.0 | SSO | 63 | 0.0 |
| 17.12.2025 | 11:01 | 4.1 | 92 | 2.9 | 1020.9 | 0.0 | S | 65 | 0.0 |
| 17.12.2025 | 11:06 | 4.3 | 92 | 3.1 | 1021.0 | 0.0 | S | 65 | 0.0 |
| 17.12.2025 | 11:11 | 4.4 | 92 | 3.2 | 1021.0 | 0.0 | S | 65 | 0.0 |
| 17.12.2025 | 11:16 | 4.5 | 92 | 3.3 | 1021.0 | 0.9 | S | 53 | 0.0 |
| 17.12.2025 | 11:21 | 4.5 | 92 | 3.3 | 1020.9 | 0.9 | S | 74 | 0.0 |
| 17.12.2025 | 11:26 | 4.6 | 92 | 3.4 | 1020.8 | 0.9 | SSO | 90 | 0.0 |
| 17.12.2025 | 11:31 | 4.6 | 92 | 3.4 | 1020.7 | 0.4 | S | 98 | 0.0 |
| 17.12.2025 | 11:36 | 4.7 | 92 | 3.5 | 1020.9 | 0.4 | S | 86 | 0.0 |
| 17.12.2025 | 11:41 | 4.8 | 92 | 3.6 | 1020.9 | 0.4 | S | 77 | 0.0 |
| 17.12.2025 | 11:46 | 4.9 | 92 | 3.7 | 1020.9 | 0.4 | S | 76 | 0.0 |
| 17.12.2025 | 11:51 | 4.9 | 92 | 3.7 | 1020.9 | 0.4 | SSW | 84 | 0.0 |
| 17.12.2025 | 11:56 | 5.0 | 92 | 3.8 | 1020.9 | 0.4 | S | 58 | 0.0 |
| 17.12.2025 | 12:01 | 5.0 | 92 | 3.8 | 1020.9 | 0.4 | S | 60 | 0.0 |
| 17.12.2025 | 12:06 | 5.0 | 91 | 3.7 | 1020.9 | 0.9 | S | 77 | 0.0 |
| 17.12.2025 | 12:11 | 5.1 | 92 | 3.9 | 1020.8 | 0.9 | S | 76 | 0.0 |
| 17.12.2025 | 12:16 | 5.1 | 92 | 3.9 | 1020.8 | 0.0 | S | 104 | 0.0 |
| 17.12.2025 | 12:21 | 5.2 | 92 | 4.0 | 1020.8 | 0.0 | S | 97 | 0.0 |
| 17.12.2025 | 12:26 | 5.3 | 91 | 4.0 | 1020.7 | 0.0 | S | 105 | 0.0 |
| 17.12.2025 | 12:31 | 5.4 | 91 | 4.0 | 1020.6 | 0.4 | S | 114 | 0.0 |
| 17.12.2025 | 12:36 | 5.5 | 91 | 4.1 | 1020.7 | 0.0 | S | 90 | 0.0 |
| 17.12.2025 | 12:41 | 5.6 | 91 | 4.2 | 1020.7 | 0.0 | SSO | 70 | 0.0 |
| 17.12.2025 | 12:46 | 5.6 | 91 | 4.2 | 1020.7 | 0.4 | SO | 74 | 0.0 |
| 17.12.2025 | 12:51 | 5.7 | 91 | 4.3 | 1020.6 | 0.4 | SO | 69 | 0.0 |
| 17.12.2025 | 12:56 | 5.8 | 91 | 4.4 | 1020.5 | 0.0 | SO | 84 | 0.0 |
| 17.12.2025 | 13:01 | 5.8 | 91 | 4.4 | 1020.6 | 0.4 | SSO | 74 | 0.0 |
| 17.12.2025 | 13:06 | 5.9 | 91 | 4.5 | 1020.6 | 0.0 | S | 83 | 0.0 |
| 17.12.2025 | 13:11 | 6.0 | 91 | 4.6 | 1020.5 | 0.0 | S | 90 | 0.0 |
| 17.12.2025 | 13:16 | 6.0 | 91 | 4.6 | 1020.4 | 0.0 | S | 79 | 0.0 |
| 17.12.2025 | 13:21 | 6.1 | 91 | 4.7 | 1020.4 | 0.0 | S | 69 | 0.0 |
| 17.12.2025 | 13:26 | 6.1 | 91 | 4.7 | 1020.5 | 0.0 | S | 70 | 0.0 |
| 17.12.2025 | 13:31 | 6.3 | 91 | 4.9 | 1020.4 | 0.0 | S | 83 | 0.0 |
| 17.12.2025 | 13:36 | 6.3 | 91 | 4.9 | 1020.4 | 0.4 | S | 90 | 0.0 |
| 17.12.2025 | 13:42 | 6.4 | 91 | 5.0 | 1020.3 | 0.9 | O | 95 | 0.0 |
| 17.12.2025 | 13:47 | 6.5 | 91 | 5.1 | 1020.2 | 0.4 | OSO | 98 | 0.0 |
| 17.12.2025 | 13:52 | 6.5 | 91 | 5.1 | 1020.1 | 0.4 | SO | 104 | 0.0 |
| 17.12.2025 | 13:57 | 6.6 | 91 | 5.2 | 1020.0 | 0.0 | SO | 118 | 0.0 |
| 17.12.2025 | 14:02 | 6.8 | 91 | 5.4 | 1020.1 | 0.4 | SSO | 111 | 0.0 |
| 17.12.2025 | 14:07 | 6.9 | 91 | 5.5 | 1020.0 | 0.4 | S | 114 | 0.0 |
| 17.12.2025 | 14:12 | 6.9 | 91 | 5.5 | 1020.1 | 0.0 | S | 118 | 0.0 |
| 17.12.2025 | 14:17 | 7.0 | 90 | 5.5 | 1020.1 | 0.0 | S | 76 | 0.0 |
| 17.12.2025 | 14:22 | 7.0 | 91 | 5.6 | 1020.2 | 0.0 | S | 77 | 0.0 |
| 17.12.2025 | 14:27 | 7.1 | 91 | 5.7 | 1020.2 | 0.4 | S | 77 | 0.0 |
| 17.12.2025 | 14:32 | 7.1 | 90 | 5.6 | 1020.2 | 0.0 | S | 67 | 0.0 |
| 17.12.2025 | 14:37 | 7.2 | 90 | 5.7 | 1020.2 | 0.4 | SSW | 33 | 0.0 |
| 17.12.2025 | 14:42 | 7.1 | 90 | 5.6 | 1020.3 | 0.4 | SW | 47 | 0.0 |
| 17.12.2025 | 14:47 | 7.1 | 90 | 5.6 | 1020.3 | 0.4 | SSW | 39 | 0.0 |
| 17.12.2025 | 14:52 | 7.2 | 90 | 5.7 | 1020.3 | 0.4 | S | 26 | 0.0 |
| 17.12.2025 | 14:57 | 7.2 | 90 | 5.7 | 1020.2 | 0.4 | S | 30 | 0.0 |
| 17.12.2025 | 15:02 | 7.3 | 90 | 5.8 | 1020.3 | 0.4 | S | 35 | 0.0 |
| 17.12.2025 | 15:07 | 7.3 | 90 | 5.8 | 1020.3 | 0.4 | S | 33 | 0.0 |
| 17.12.2025 | 15:12 | 7.3 | 90 | 5.8 | 1020.3 | 0.4 | S | 30 | 0.0 |
| 17.12.2025 | 15:17 | 7.3 | 90 | 5.8 | 1020.3 | 0.0 | S | 26 | 0.0 |
| 17.12.2025 | 15:22 | 7.3 | 90 | 5.8 | 1020.4 | 0.4 | SO | 21 | 0.0 |
| 17.12.2025 | 15:27 | 7.3 | 90 | 5.8 | 1020.4 | 0.4 | S | 16 | 0.0 |
| 17.12.2025 | 15:32 | 7.3 | 90 | 5.8 | 1020.4 | 0.4 | SSO | 21 | 0.0 |
| 17.12.2025 | 15:37 | 7.3 | 90 | 5.8 | 1020.3 | 0.4 | SSO | 32 | 0.0 |
| 17.12.2025 | 15:42 | 7.3 | 90 | 5.8 | 1020.3 | 0.4 | SO | 16 | 0.0 |
| 17.12.2025 | 15:47 | 7.3 | 90 | 5.8 | 1020.4 | 0.9 | SSO | 12 | 0.0 |
| 17.12.2025 | 15:52 | 7.3 | 90 | 5.8 | 1020.4 | 0.9 | SSO | 16 | 0.0 |
| 17.12.2025 | 15:57 | 7.3 | 90 | 5.8 | 1020.4 | 0.0 | SSO | 12 | 0.0 |
| 17.12.2025 | 16:02 | 7.3 | 90 | 5.8 | 1020.5 | 0.4 | SSO | 9 | 0.0 |
| 17.12.2025 | 16:07 | 7.3 | 90 | 5.8 | 1020.5 | 0.0 | S | 7 | 0.0 |
| 17.12.2025 | 16:13 | 7.2 | 90 | 5.7 | 1020.5 | 0.0 | S | 5 | 0.0 |
| 17.12.2025 | 16:18 | 7.1 | 90 | 5.6 | 1020.4 | 0.9 | S | 0 | 0.0 |
| 17.12.2025 | 16:23 | 7.0 | 90 | 5.5 | 1020.5 | 0.0 | SSO | 0 | 0.0 |
| 17.12.2025 | 16:28 | 7.0 | 90 | 5.5 | 1020.5 | 0.4 | OSO | 0 | 0.0 |
| 17.12.2025 | 16:33 | 6.9 | 90 | 5.4 | 1020.5 | 0.4 | SO | 0 | 0.0 |
| 17.12.2025 | 16:38 | 6.9 | 90 | 5.4 | 1020.5 | 0.9 | SO | 0 | 0.0 |
| 17.12.2025 | 16:43 | 6.8 | 90 | 5.3 | 1020.6 | 0.4 | OSO | 0 | 0.0 |
| 17.12.2025 | 16:48 | 6.7 | 90 | 5.2 | 1020.7 | 0.4 | SSW | 0 | 0.0 |
| 17.12.2025 | 16:53 | 6.7 | 90 | 5.2 | 1020.5 | 0.0 | O | 0 | 0.0 |
| 17.12.2025 | 16:58 | 6.6 | 90 | 5.1 | 1020.6 | 0.0 | OSO | 0 | 0.0 |
| 17.12.2025 | 17:03 | 6.6 | 90 | 5.1 | 1020.6 | 0.4 | S | 0 | 0.0 |
| 17.12.2025 | 17:08 | 6.6 | 90 | 5.1 | 1020.6 | 0.0 | SSO | 0 | 0.0 |
| 17.12.2025 | 17:13 | 6.6 | 90 | 5.1 | 1020.7 | 0.0 | SSO | 0 | 0.0 |
| 17.12.2025 | 17:18 | 6.6 | 90 | 5.1 | 1020.8 | 0.4 | SSO | 0 | 0.0 |
| 17.12.2025 | 17:23 | 6.6 | 90 | 5.1 | 1020.7 | 0.0 | S | 0 | 0.0 |
| 17.12.2025 | 17:28 | 6.5 | 90 | 5.0 | 1020.8 | 0.0 | SSO | 0 | 0.0 |
| 17.12.2025 | 17:33 | 6.5 | 90 | 5.0 | 1020.8 | 0.0 | SSO | 0 | 0.0 |
| 17.12.2025 | 17:38 | 6.5 | 90 | 5.0 | 1020.8 | 0.4 | SSO | 0 | 0.0 |
| 17.12.2025 | 17:43 | 6.5 | 90 | 5.0 | 1020.8 | 0.0 | SSO | 0 | 0.0 |
| 17.12.2025 | 17:48 | 6.5 | 91 | 5.1 | 1020.8 | 0.4 | SSO | 0 | 0.0 |
| 17.12.2025 | 17:53 | 6.5 | 91 | 5.1 | 1020.9 | 0.4 | S | 0 | 0.0 |
| 17.12.2025 | 17:58 | 6.5 | 91 | 5.1 | 1020.9 | 0.4 | S | 0 | 0.0 |
| 17.12.2025 | 18:03 | 6.5 | 91 | 5.1 | 1020.9 | 0.4 | S | 0 | 0.0 |
| 17.12.2025 | 18:08 | 6.5 | 91 | 5.1 | 1020.9 | 0.0 | S | 0 | 0.0 |
| 17.12.2025 | 18:13 | 6.4 | 91 | 5.0 | 1020.9 | 0.4 | S | 0 | 0.0 |
| 17.12.2025 | 18:18 | 6.4 | 91 | 5.0 | 1020.9 | 0.0 | S | 0 | 0.0 |
| 17.12.2025 | 18:23 | 6.4 | 91 | 5.0 | 1020.9 | 0.0 | SSO | 0 | 0.0 |
| 17.12.2025 | 18:28 | 6.4 | 91 | 5.0 | 1020.8 | 0.0 | SSO | 0 | 0.0 |
| 17.12.2025 | 18:33 | 6.4 | 91 | 5.0 | 1020.8 | 0.4 | OSO | 0 | 0.0 |
| 17.12.2025 | 18:38 | 6.5 | 91 | 5.1 | 1020.8 | 0.4 | SSO | 0 | 0.0 |
| 17.12.2025 | 18:43 | 6.5 | 91 | 5.1 | 1020.8 | 0.0 | S | 0 | 0.0 |
| 17.12.2025 | 18:48 | 6.6 | 91 | 5.2 | 1020.9 | 0.4 | S | 0 | 0.0 |
| 17.12.2025 | 18:53 | 6.6 | 91 | 5.2 | 1021.0 | 0.4 | S | 0 | 0.0 |
| 17.12.2025 | 18:58 | 6.6 | 91 | 5.2 | 1021.0 | 0.4 | S | 0 | 0.0 |
| 17.12.2025 | 19:04 | 6.6 | 91 | 5.2 | 1021.0 | 0.4 | S | 0 | 0.0 |
| 17.12.2025 | 19:09 | 6.6 | 91 | 5.2 | 1021.1 | 0.4 | SSW | 0 | 0.0 |
| 17.12.2025 | 19:14 | 6.7 | 91 | 5.3 | 1021.1 | 0.4 | S | 0 | 0.0 |
| 17.12.2025 | 19:19 | 6.6 | 91 | 5.2 | 1021.2 | 0.4 | S | 0 | 0.0 |
| 17.12.2025 | 19:24 | 6.6 | 91 | 5.2 | 1021.2 | 0.4 | SSO | 0 | 0.0 |
| 17.12.2025 | 19:29 | 6.6 | 92 | 5.4 | 1021.2 | 0.0 | SO | 0 | 0.0 |
| 17.12.2025 | 19:34 | 6.6 | 92 | 5.4 | 1021.2 | 0.4 | SO | 0 | 0.0 |
| 17.12.2025 | 19:39 | 6.6 | 92 | 5.4 | 1021.2 | 0.0 | SO | 0 | 0.0 |
| 17.12.2025 | 19:44 | 6.6 | 92 | 5.4 | 1021.2 | 0.4 | OSO | 0 | 0.0 |
| 17.12.2025 | 19:49 | 6.6 | 92 | 5.4 | 1021.1 | 0.0 | SO | 0 | 0.0 |
| 17.12.2025 | 19:54 | 6.7 | 92 | 5.5 | 1021.1 | 0.4 | SO | 0 | 0.0 |
| 17.12.2025 | 19:59 | 6.7 | 92 | 5.5 | 1021.1 | 0.4 | SSO | 0 | 0.0 |
| 17.12.2025 | 20:04 | 6.8 | 92 | 5.6 | 1021.1 | 0.9 | OSO | 0 | 0.0 |
| 17.12.2025 | 20:09 | 6.8 | 92 | 5.6 | 1021.1 | 0.4 | S | 0 | 0.0 |
| 17.12.2025 | 20:14 | 6.8 | 92 | 5.6 | 1021.2 | 1.3 | SO | 0 | 0.0 |
| 17.12.2025 | 20:19 | 6.8 | 92 | 5.6 | 1021.2 | 0.0 | S | 0 | 0.0 |
| 17.12.2025 | 20:24 | 6.8 | 92 | 5.6 | 1021.2 | 0.4 | SSO | 0 | 0.0 |
| 17.12.2025 | 20:29 | 6.8 | 92 | 5.6 | 1021.2 | 0.0 | SSO | 0 | 0.0 |
| 17.12.2025 | 20:34 | 6.9 | 92 | 5.7 | 1021.3 | 0.0 | SSO | 0 | 0.0 |
| 17.12.2025 | 20:39 | 6.9 | 92 | 5.7 | 1021.3 | 0.9 | S | 0 | 0.0 |
| 17.12.2025 | 20:44 | 7.0 | 92 | 5.8 | 1021.3 | 0.9 | S | 0 | 0.0 |
| 17.12.2025 | 20:49 | 7.0 | 92 | 5.8 | 1021.2 | 0.0 | SO | 0 | 0.0 |
| 17.12.2025 | 20:54 | 7.1 | 92 | 5.9 | 1021.2 | 0.0 | SSO | 0 | 0.0 |
| 17.12.2025 | 20:59 | 7.1 | 92 | 5.9 | 1021.2 | 0.4 | SW | 0 | 0.0 |
| 17.12.2025 | 21:04 | 7.2 | 92 | 6.0 | 1021.3 | 0.9 | S | 0 | 0.0 |
| 17.12.2025 | 21:09 | 7.3 | 92 | 6.1 | 1021.3 | 0.9 | S | 0 | 0.0 |
| 17.12.2025 | 21:14 | 7.4 | 92 | 6.2 | 1021.2 | 0.4 | S | 0 | 0.0 |
| 17.12.2025 | 21:19 | 7.4 | 92 | 6.2 | 1021.3 | 0.0 | S | 0 | 0.0 |
| 17.12.2025 | 21:24 | 7.4 | 92 | 6.2 | 1021.2 | 0.4 | S | 0 | 0.0 |
| 17.12.2025 | 21:34 | 7.4 | 92 | 6.2 | 1021.2 | 0.0 | OSO | 0 | 0.0 |
| 17.12.2025 | 21:39 | 7.5 | 92 | 6.3 | 1021.2 | 0.4 | SO | 0 | 0.0 |
| 17.12.2025 | 21:44 | 7.5 | 92 | 6.3 | 1021.1 | 0.0 | S | 0 | 0.0 |
| 17.12.2025 | 21:50 | 7.5 | 92 | 6.3 | 1021.3 | 1.8 | SSO | 0 | 0.0 |
| 17.12.2025 | 21:55 | 7.5 | 92 | 6.3 | 1021.2 | 0.4 | SSO | 0 | 0.0 |
| 17.12.2025 | 22:00 | 7.5 | 92 | 6.3 | 1021.2 | 0.9 | S | 0 | 0.0 |
| 17.12.2025 | 22:05 | 7.5 | 92 | 6.3 | 1021.2 | 0.0 | SSO | 0 | 0.0 |
| 17.12.2025 | 22:10 | 7.5 | 92 | 6.3 | 1021.2 | 1.8 | S | 0 | 0.0 |
| 17.12.2025 | 22:15 | 7.5 | 92 | 6.3 | 1021.2 | 0.4 | SSO | 0 | 0.0 |
| 17.12.2025 | 22:20 | 7.5 | 92 | 6.3 | 1021.2 | 0.9 | S | 0 | 0.0 |
| 17.12.2025 | 22:25 | 7.5 | 92 | 6.3 | 1021.2 | 0.9 | S | 0 | 0.0 |
| 17.12.2025 | 22:30 | 7.5 | 92 | 6.3 | 1021.2 | 0.4 | SO | 0 | 0.0 |
| 17.12.2025 | 22:35 | 7.5 | 92 | 6.3 | 1021.2 | 0.4 | SO | 0 | 0.0 |
| 17.12.2025 | 22:40 | 7.6 | 92 | 6.4 | 1021.2 | 0.9 | SSO | 0 | 0.0 |
| 17.12.2025 | 22:45 | 7.6 | 92 | 6.4 | 1021.2 | 1.8 | S | 0 | 0.0 |
| 17.12.2025 | 22:50 | 7.6 | 92 | 6.4 | 1021.2 | 0.9 | SO | 0 | 0.0 |
| 17.12.2025 | 22:55 | 7.6 | 92 | 6.4 | 1021.2 | 1.8 | S | 0 | 0.0 |
| 17.12.2025 | 23:00 | 7.6 | 92 | 6.4 | 1021.2 | 0.0 | S | 0 | 0.0 |
| 17.12.2025 | 23:05 | 7.7 | 92 | 6.5 | 1021.2 | 1.3 | SSO | 0 | 0.0 |
| 17.12.2025 | 23:10 | 7.7 | 92 | 6.5 | 1021.2 | 2.2 | S | 0 | 0.0 |
| 17.12.2025 | 23:15 | 7.8 | 92 | 6.6 | 1021.2 | 1.3 | SSW | 0 | 0.0 |
| 17.12.2025 | 23:20 | 7.8 | 92 | 6.6 | 1021.2 | 0.4 | SSO | 0 | 0.0 |
| 17.12.2025 | 23:25 | 7.8 | 92 | 6.6 | 1021.2 | 1.3 | SSW | 0 | 0.0 |
| 17.12.2025 | 23:30 | 7.8 | 92 | 6.6 | 1021.2 | 0.9 | SSO | 0 | 0.0 |
| 17.12.2025 | 23:35 | 7.9 | 92 | 6.7 | 1021.2 | 0.9 | S | 0 | 0.0 |
| 17.12.2025 | 23:40 | 7.9 | 92 | 6.7 | 1021.2 | 0.4 | SSW | 0 | 0.0 |
| 17.12.2025 | 23:45 | 7.9 | 92 | 6.7 | 1021.2 | 0.9 | S | 0 | 0.0 |
| 17.12.2025 | 23:50 | 7.9 | 92 | 6.7 | 1021.2 | 0.4 | S | 0 | 0.0 |
| 17.12.2025 | 23:55 | 7.9 | 92 | 6.7 | 1021.2 | 1.8 | SSW | 0 | 0.0 |